createdAt,value
2018-11-13T00:00:18.535Z,6.20
2018-11-13T00:02:45.691Z,5.97
2018-11-13T00:05:13.045Z,6.00
2018-11-13T00:07:40.300Z,6.23
2018-11-13T00:10:08.583Z,6.67
2018-11-13T00:12:35.766Z,6.90
2018-11-13T00:15:02.944Z,8.10
2018-11-13T00:17:30.131Z,8.40
2018-11-13T00:19:57.264Z,8.20
2018-11-13T00:22:24.390Z,8.93
2018-11-13T00:24:51.521Z,8.90
2018-11-13T00:27:18.707Z,8.30
2018-11-13T00:29:45.799Z,8.97
2018-11-13T00:32:12.948Z,9.60
2018-11-13T00:34:40.081Z,8.83
2018-11-13T00:37:07.254Z,9.47
2018-11-13T00:39:34.379Z,9.20
2018-11-13T00:42:01.535Z,9.40
2018-11-13T00:44:28.696Z,9.50
2018-11-13T00:46:55.885Z,9.37
2018-11-13T00:49:23.006Z,9.43
2018-11-13T00:51:50.211Z,9.50
2018-11-13T00:54:17.327Z,9.20
2018-11-13T00:56:44.630Z,10.13
2018-11-13T00:59:11.838Z,10.37
2018-11-13T01:01:38.954Z,9.93
2018-11-13T01:04:06.085Z,9.73
2018-11-13T01:06:33.239Z,9.73
2018-11-13T01:09:00.423Z,10.10
2018-11-13T01:11:27.552Z,10.40
2018-11-13T01:13:54.663Z,9.83
2018-11-13T01:16:21.800Z,9.60
2018-11-13T01:18:48.963Z,10.13
2018-11-13T01:21:16.148Z,9.13
2018-11-13T01:23:43.297Z,9.73
2018-11-13T01:26:10.384Z,10.03
2018-11-13T01:28:37.534Z,9.90
2018-11-13T01:31:05.343Z,10.73
2018-11-13T01:33:32.501Z,9.27
2018-11-13T01:35:59.635Z,9.20
2018-11-13T01:38:26.763Z,8.97
2018-11-13T01:40:53.900Z,8.37
2018-11-13T01:43:21.025Z,9.50
2018-11-13T01:45:48.214Z,8.37
2018-11-13T01:48:15.344Z,7.83
2018-11-13T01:50:42.473Z,7.80
2018-11-13T01:53:09.584Z,6.20
2018-11-13T01:55:36.735Z,5.97
2018-11-13T01:58:04.216Z,5.63
2018-11-13T02:00:31.366Z,4.60
2018-11-13T02:02:58.496Z,5.23
2018-11-13T02:05:25.955Z,5.27
2018-11-13T02:07:53.750Z,5.57
2018-11-13T02:10:21.100Z,5.13
2018-11-13T02:12:48.779Z,4.83
2018-11-13T02:15:16.233Z,5.10
2018-11-13T02:17:43.378Z,5.30
2018-11-13T02:20:14.929Z,5.47
2018-11-13T02:22:42.295Z,5.70
2018-11-13T02:25:11.406Z,5.40
2018-11-13T02:27:38.958Z,5.47
2018-11-13T02:30:07.515Z,6.13
2018-11-13T02:32:36.526Z,5.73
2018-11-13T02:35:04.075Z,6.13
2018-11-13T02:37:31.234Z,5.80
2018-11-13T02:39:58.359Z,6.00
2018-11-13T02:42:25.553Z,4.43
2018-11-13T02:44:52.695Z,3.23
2018-11-13T02:47:19.837Z,3.23
2018-11-13T02:49:46.979Z,2.90
2018-11-13T02:52:14.159Z,2.70
2018-11-13T02:54:41.351Z,2.80
2018-11-13T02:57:08.478Z,2.20
2018-11-13T02:59:35.630Z,2.50
2018-11-13T03:02:02.866Z,1.67
2018-11-13T03:04:30.023Z,1.80
2018-11-13T03:06:57.461Z,1.83
2018-11-13T03:09:24.594Z,1.57
2018-11-13T03:11:51.776Z,1.50
2018-11-13T03:14:18.916Z,1.53
2018-11-13T03:16:46.059Z,2.10
2018-11-13T03:19:13.180Z,1.70
2018-11-13T03:21:40.341Z,2.13
2018-11-13T03:24:07.486Z,2.00
2018-11-13T03:26:34.629Z,2.57
2018-11-13T03:29:02.010Z,2.67
2018-11-13T03:31:29.351Z,2.50
2018-11-13T03:33:56.343Z,2.53
2018-11-13T03:36:23.471Z,2.60
2018-11-13T03:38:50.610Z,2.50
2018-11-13T03:41:17.747Z,2.60
2018-11-13T03:43:44.883Z,2.80
2018-11-13T03:46:12.033Z,2.50
2018-11-13T03:48:39.163Z,2.37
2018-11-13T03:51:06.294Z,1.60
2018-11-13T03:53:33.439Z,1.70
2018-11-13T03:56:00.575Z,1.80
2018-11-13T03:58:27.685Z,1.57
2018-11-13T04:00:54.790Z,2.00
2018-11-13T04:03:21.914Z,1.40
2018-11-13T04:05:49.051Z,1.47
2018-11-13T04:08:16.252Z,1.30
2018-11-13T04:10:43.382Z,1.27
2018-11-13T04:13:10.507Z,1.23
2018-11-13T04:15:37.746Z,1.47
2018-11-13T04:18:05.317Z,1.60
2018-11-13T04:20:32.433Z,1.20
2018-11-13T04:22:59.563Z,1.27
2018-11-13T04:25:26.718Z,1.73
2018-11-13T04:27:53.861Z,1.33
2018-11-13T04:30:20.981Z,1.57
2018-11-13T04:32:48.159Z,1.47
2018-11-13T04:35:16.454Z,1.37
2018-11-13T04:37:43.608Z,1.40
2018-11-13T04:40:17.118Z,1.50
2018-11-13T04:42:45.549Z,1.70
2018-11-13T04:45:13.924Z,1.40
2018-11-13T04:47:41.496Z,1.50
2018-11-13T04:50:10.082Z,1.70
2018-11-13T04:52:37.910Z,1.70
2018-11-13T04:55:05.907Z,2.10
2018-11-13T04:57:33.046Z,1.83
2018-11-13T05:00:00.189Z,1.53
2018-11-13T05:02:27.336Z,1.63
2018-11-13T05:04:54.502Z,1.63
2018-11-13T05:07:21.631Z,1.40
2018-11-13T05:09:49.307Z,1.40
2018-11-13T05:12:16.443Z,1.33
2018-11-13T05:14:43.558Z,1.50
2018-11-13T05:17:10.798Z,1.90
2018-11-13T05:19:44.643Z,1.97
2018-11-13T05:22:11.775Z,1.87
2018-11-13T05:24:38.899Z,1.80
2018-11-13T05:27:06.088Z,1.83
2018-11-13T05:29:33.216Z,1.50
2018-11-13T05:32:00.325Z,1.40
2018-11-13T05:34:27.447Z,1.50
2018-11-13T05:36:54.550Z,1.97
2018-11-13T05:39:21.663Z,1.30
2018-11-13T05:41:48.819Z,1.50
2018-11-13T05:44:15.914Z,1.47
2018-11-13T05:46:43.029Z,1.90
2018-11-13T05:49:10.140Z,1.40
2018-11-13T05:51:37.265Z,1.70
2018-11-13T05:54:04.464Z,1.57
2018-11-13T05:56:31.578Z,1.50
2018-11-13T05:58:58.866Z,1.87
2018-11-13T06:01:25.977Z,1.60
2018-11-13T06:03:53.095Z,1.60
2018-11-13T06:06:20.205Z,1.43
2018-11-13T06:08:47.315Z,1.83
2018-11-13T06:11:14.450Z,1.97
2018-11-13T06:13:41.551Z,1.47
2018-11-13T06:16:08.666Z,1.70
2018-11-13T06:18:35.793Z,2.00
2018-11-13T06:21:03.170Z,2.00
2018-11-13T06:23:30.282Z,2.10
2018-11-13T06:25:57.402Z,2.30
2018-11-13T06:28:24.518Z,2.57
2018-11-13T06:30:51.630Z,2.03
2018-11-13T06:33:18.735Z,2.27
2018-11-13T06:35:45.854Z,2.17
2018-11-13T06:38:12.954Z,2.47
2018-11-13T06:40:40.074Z,2.33
2018-11-13T06:43:07.196Z,2.43
2018-11-13T06:45:34.305Z,2.13
2018-11-13T06:48:01.420Z,2.20
2018-11-13T06:50:28.605Z,2.67
2018-11-13T06:52:55.721Z,4.07
2018-11-13T06:55:28.874Z,2.50
2018-11-13T06:57:56.011Z,2.47
2018-11-13T07:00:23.155Z,2.80
2018-11-13T07:02:50.278Z,2.67
2018-11-13T07:05:17.894Z,2.53
2018-11-13T07:07:45.516Z,2.93
2018-11-13T07:10:13.999Z,3.00
2018-11-13T07:12:42.479Z,2.90
2018-11-13T07:15:11.137Z,2.40
2018-11-13T07:17:38.277Z,2.93
2018-11-13T07:20:06.144Z,2.67
2018-11-13T07:22:33.281Z,2.27
2018-11-13T07:25:00.403Z,2.40
2018-11-13T07:27:27.629Z,2.37
2018-11-13T07:29:54.678Z,3.30
2018-11-13T07:32:22.638Z,2.40
2018-11-13T07:34:49.746Z,2.13
2018-11-13T07:37:16.873Z,2.00
2018-11-13T07:39:43.991Z,1.77
2018-11-13T07:42:11.130Z,1.77
2018-11-13T07:44:38.263Z,1.70
2018-11-13T07:47:05.456Z,1.50
2018-11-13T07:49:32.545Z,1.30
2018-11-13T07:51:59.862Z,1.03
2018-11-13T07:54:27.004Z,1.30
2018-11-13T07:56:54.099Z,1.27
2018-11-13T07:59:21.198Z,1.50
2018-11-13T08:01:48.298Z,1.20
2018-11-13T08:04:15.429Z,1.30
2018-11-13T08:06:42.585Z,1.33
2018-11-13T08:09:09.646Z,0.83
2018-11-13T08:11:36.775Z,1.73
2018-11-13T08:14:03.954Z,1.37
2018-11-13T08:16:31.334Z,2.40
2018-11-13T08:18:58.464Z,1.23
2018-11-13T08:21:25.536Z,1.53
2018-11-13T08:23:52.641Z,1.30
2018-11-13T08:26:19.799Z,1.30
2018-11-13T08:28:46.932Z,1.10
2018-11-13T08:31:13.996Z,1.40
2018-11-13T08:33:41.113Z,1.27
2018-11-13T08:36:08.671Z,1.20
2018-11-13T08:38:35.802Z,1.50
2018-11-13T08:41:02.959Z,1.40
2018-11-13T08:43:30.062Z,1.70
2018-11-13T08:45:57.215Z,1.37
2018-11-13T08:48:24.322Z,1.40
2018-11-13T08:50:51.500Z,1.27
2018-11-13T08:53:18.570Z,1.60
2018-11-13T08:55:45.699Z,1.17
2018-11-13T08:58:12.862Z,1.47
2018-11-13T09:00:39.905Z,1.53
2018-11-13T09:03:07.024Z,1.37
2018-11-13T09:05:34.131Z,1.50
2018-11-13T09:08:01.262Z,1.10
2018-11-13T09:10:28.372Z,1.23
2018-11-13T09:12:55.486Z,1.60
2018-11-13T09:15:22.616Z,1.20
2018-11-13T09:17:49.753Z,1.10
2018-11-13T09:20:18.099Z,0.70
2018-11-13T09:22:45.299Z,0.90
2018-11-13T09:25:13.630Z,1.10
2018-11-13T09:27:40.828Z,1.00
2018-11-13T09:30:10.307Z,1.17
2018-11-13T09:32:37.749Z,1.00
2018-11-13T09:35:05.636Z,0.90
2018-11-13T09:37:32.764Z,1.00
2018-11-13T09:39:59.830Z,0.70
2018-11-13T09:42:26.955Z,1.50
2018-11-13T09:44:54.155Z,0.97
2018-11-13T09:47:21.182Z,1.10
2018-11-13T09:49:48.305Z,0.93
2018-11-13T09:52:15.450Z,0.77
2018-11-13T09:54:42.562Z,1.00
2018-11-13T09:57:09.683Z,1.00
2018-11-13T09:59:36.803Z,0.70
2018-11-13T10:02:04.606Z,0.60
2018-11-13T10:04:31.805Z,0.60
2018-11-13T10:06:58.435Z,0.70
2018-11-13T10:09:25.493Z,0.80
2018-11-13T10:11:52.618Z,0.83
2018-11-13T10:14:19.725Z,0.70
2018-11-13T10:16:46.877Z,1.00
2018-11-13T10:19:13.994Z,0.90
2018-11-13T10:21:41.110Z,0.90
2018-11-13T10:24:08.942Z,0.70
2018-11-13T10:26:36.141Z,0.70
2018-11-13T10:29:03.448Z,0.90
2018-11-13T10:31:30.565Z,0.90
2018-11-13T10:33:57.746Z,1.10
2018-11-13T10:36:25.098Z,0.83
2018-11-13T10:38:52.209Z,0.90
2018-11-13T10:41:19.403Z,0.70
2018-11-13T10:43:46.649Z,0.80
2018-11-13T10:46:13.785Z,1.00
2018-11-13T10:48:40.903Z,0.87
2018-11-13T10:51:08.028Z,0.93
2018-11-13T10:53:35.209Z,0.97
2018-11-13T10:56:02.332Z,1.00
2018-11-13T10:58:29.576Z,0.80
2018-11-13T11:00:59.199Z,2.57
2018-11-13T11:03:32.667Z,1.10
2018-11-13T11:05:59.843Z,1.10
2018-11-13T11:08:26.977Z,1.00
2018-11-13T11:10:54.109Z,0.83
2018-11-13T11:13:21.403Z,0.90
2018-11-13T11:15:48.382Z,0.80
2018-11-13T11:18:15.639Z,0.70
2018-11-13T11:20:42.686Z,1.13
2018-11-13T11:23:09.891Z,0.90
2018-11-13T11:25:36.948Z,0.70
2018-11-13T11:28:04.127Z,1.30
2018-11-13T11:30:31.237Z,0.93
2018-11-13T11:32:58.350Z,0.50
2018-11-13T11:35:25.473Z,0.70
2018-11-13T11:37:52.595Z,1.30
2018-11-13T11:40:19.759Z,0.70
2018-11-13T11:42:46.913Z,0.80
2018-11-13T11:45:14.447Z,0.97
2018-11-13T11:47:41.871Z,0.67
2018-11-13T11:50:10.142Z,0.63
2018-11-13T11:52:37.461Z,0.60
2018-11-13T11:55:04.935Z,0.80
2018-11-13T11:57:32.071Z,0.80
2018-11-13T11:59:59.191Z,0.53
2018-11-13T12:02:26.337Z,0.83
2018-11-13T12:04:53.482Z,0.70
2018-11-13T12:07:20.632Z,0.60
2018-11-13T12:09:47.768Z,0.60
2018-11-13T12:12:14.908Z,0.90
2018-11-13T12:14:42.065Z,0.70
2018-11-13T12:17:09.210Z,0.70
2018-11-13T12:19:36.385Z,0.80
2018-11-13T12:22:03.584Z,0.80
2018-11-13T12:24:30.866Z,0.73
2018-11-13T12:26:58.002Z,0.93
2018-11-13T12:29:25.119Z,1.00
2018-11-13T12:31:52.244Z,1.17
2018-11-13T12:34:19.398Z,1.00
2018-11-13T12:36:46.520Z,1.37
2018-11-13T12:39:13.638Z,0.80
2018-11-13T12:41:40.920Z,1.20
2018-11-13T12:44:08.185Z,0.90
2018-11-13T12:46:35.427Z,1.03
2018-11-13T12:49:02.634Z,0.83
2018-11-13T12:51:33.548Z,1.50
2018-11-13T12:54:00.730Z,1.33
2018-11-13T12:56:27.965Z,0.90
2018-11-13T12:58:55.015Z,0.90
2018-11-13T13:01:22.183Z,1.27
2018-11-13T13:03:49.316Z,0.80
2018-11-13T13:06:16.634Z,0.73
2018-11-13T13:08:43.818Z,1.00
2018-11-13T13:11:10.890Z,1.07
2018-11-13T13:13:42.278Z,0.90
2018-11-13T13:16:10.003Z,1.37
2018-11-13T13:18:37.193Z,1.00
2018-11-13T13:21:04.935Z,1.07
2018-11-13T13:23:32.067Z,1.00
2018-11-13T13:25:59.363Z,1.03
2018-11-13T13:28:26.418Z,1.13
2018-11-13T13:30:53.542Z,1.30
2018-11-13T13:33:20.798Z,1.10
2018-11-13T13:35:50.341Z,1.10
2018-11-13T13:38:17.536Z,1.30
2018-11-13T13:40:45.845Z,0.80
2018-11-13T13:43:13.719Z,1.07
2018-11-13T13:45:41.600Z,0.93
2018-11-13T13:48:08.786Z,1.03
2018-11-13T13:50:36.397Z,0.97
2018-11-13T13:53:03.769Z,1.03
2018-11-13T13:55:30.922Z,1.20
2018-11-13T13:57:58.061Z,1.00
2018-11-13T14:00:25.372Z,1.40
2018-11-13T14:02:52.326Z,1.30
2018-11-13T14:05:20.126Z,1.30
2018-11-13T14:07:47.383Z,1.10
2018-11-13T14:10:14.543Z,1.10
2018-11-13T14:12:41.701Z,1.90
2018-11-13T14:15:10.532Z,1.40
2018-11-13T14:17:37.742Z,1.60
2018-11-13T14:20:07.838Z,1.07
2018-11-13T14:22:34.996Z,1.00
2018-11-13T14:25:02.154Z,1.30
2018-11-13T14:27:29.299Z,1.30
2018-11-13T14:29:56.419Z,0.90
2018-11-13T14:32:23.566Z,1.90
2018-11-13T14:34:50.803Z,1.33
2018-11-13T14:37:17.933Z,1.20
2018-11-13T14:39:45.087Z,1.03
2018-11-13T14:42:12.206Z,1.37
2018-11-13T14:44:39.331Z,1.03
2018-11-13T14:47:06.480Z,1.23
2018-11-13T14:49:33.755Z,1.53
2018-11-13T14:52:00.897Z,1.40
2018-11-13T14:54:28.050Z,1.20
2018-11-13T14:56:55.529Z,1.30
2018-11-13T14:59:22.671Z,1.40
2018-11-13T15:01:49.800Z,1.70
2018-11-13T15:04:16.923Z,1.07
2018-11-13T15:06:44.052Z,1.23
2018-11-13T15:09:11.273Z,1.20
2018-11-13T15:11:38.392Z,1.30
2018-11-13T15:14:05.572Z,1.50
2018-11-13T15:16:32.694Z,1.57
2018-11-13T15:18:59.813Z,1.07
2018-11-13T15:21:26.930Z,1.67
2018-11-13T15:23:54.053Z,1.73
2018-11-13T15:26:21.175Z,2.07
2018-11-13T15:28:55.134Z,1.40
2018-11-13T15:31:22.302Z,1.40
2018-11-13T15:33:49.435Z,1.83
2018-11-13T15:36:16.557Z,1.17
2018-11-13T15:38:43.688Z,1.60
2018-11-13T15:41:10.819Z,1.47
2018-11-13T15:43:37.947Z,1.20
2018-11-13T15:46:05.258Z,1.13
2018-11-13T15:48:32.407Z,1.27
2018-11-13T15:50:59.558Z,1.00
2018-11-13T15:53:26.690Z,1.33
2018-11-13T15:55:53.867Z,1.23
2018-11-13T15:58:21.040Z,1.10
2018-11-13T16:00:48.161Z,1.30
2018-11-13T16:03:17.555Z,1.63
2018-11-13T16:05:48.942Z,2.17
2018-11-13T16:08:16.058Z,1.40
2018-11-13T16:10:43.244Z,1.50
2018-11-13T16:13:10.585Z,2.20
2018-11-13T16:15:37.971Z,2.00
2018-11-13T16:18:07.865Z,1.67
2018-11-13T16:20:35.138Z,1.93
2018-11-13T16:23:02.303Z,2.10
2018-11-13T16:25:29.427Z,1.70
2018-11-13T16:27:56.601Z,1.80
2018-11-13T16:30:25.143Z,1.97
2018-11-13T16:32:52.610Z,2.03
2018-11-13T16:35:20.799Z,1.90
2018-11-13T16:37:48.609Z,1.40
2018-11-13T16:40:17.168Z,1.70
2018-11-13T16:42:44.314Z,1.63
2018-11-13T16:45:14.401Z,1.60
2018-11-13T16:47:41.574Z,2.10
2018-11-13T16:50:11.372Z,1.60
2018-11-13T16:52:38.521Z,1.80
2018-11-13T16:55:06.683Z,1.80
2018-11-13T16:57:33.844Z,2.20
2018-11-13T17:00:01.088Z,2.70
2018-11-13T17:02:28.198Z,2.03
2018-11-13T17:04:55.314Z,3.93
2018-11-13T17:07:22.535Z,3.23
2018-11-13T17:09:49.574Z,3.47
2018-11-13T17:12:16.705Z,2.40
2018-11-13T17:14:43.868Z,2.50
2018-11-13T17:17:10.995Z,2.30
2018-11-13T17:19:38.211Z,2.70
2018-11-13T17:22:05.628Z,2.40
2018-11-13T17:24:32.737Z,1.73
2018-11-13T17:26:59.863Z,3.37
2018-11-13T17:29:27.011Z,5.67
2018-11-13T17:31:54.157Z,5.53
2018-11-13T17:34:21.287Z,5.13
2018-11-13T17:36:48.579Z,5.70
2018-11-13T17:39:15.697Z,4.00
2018-11-13T17:41:43.281Z,2.43
2018-11-13T17:44:10.520Z,2.33
2018-11-13T17:46:37.577Z,3.90
2018-11-13T17:49:04.790Z,4.53
2018-11-13T17:51:32.476Z,2.20
2018-11-13T17:53:59.588Z,2.47
2018-11-13T17:56:26.742Z,2.13
2018-11-13T17:58:53.877Z,2.20
2018-11-13T18:01:21.042Z,1.90
2018-11-13T18:03:48.213Z,2.30
2018-11-13T18:06:15.382Z,1.60
2018-11-13T18:08:42.564Z,3.50
2018-11-13T18:11:09.693Z,2.23
2018-11-13T18:13:36.850Z,3.67
2018-11-13T18:16:04.247Z,3.57
2018-11-13T18:18:31.347Z,4.13
2018-11-13T18:20:58.479Z,3.50
2018-11-13T18:23:25.705Z,3.20
2018-11-13T18:25:52.809Z,3.30
2018-11-13T18:28:20.120Z,2.73
2018-11-13T18:30:47.109Z,2.70
2018-11-13T18:33:14.273Z,1.90
2018-11-13T18:35:41.442Z,3.70
2018-11-13T18:38:11.060Z,2.07
2018-11-13T18:40:38.236Z,2.43
2018-11-13T18:43:05.726Z,2.80
2018-11-13T18:45:34.224Z,2.67
2018-11-13T18:48:01.411Z,2.03
2018-11-13T18:50:30.683Z,2.40
2018-11-13T18:52:57.908Z,2.40
2018-11-13T18:55:25.218Z,2.80
2018-11-13T18:57:52.405Z,2.57
2018-11-13T19:00:22.043Z,2.77
2018-11-13T19:02:49.217Z,3.30
2018-11-13T19:05:16.792Z,2.77
2018-11-13T19:07:44.033Z,2.30
2018-11-13T19:10:14.543Z,2.20
2018-11-13T19:12:41.827Z,2.10
2018-11-13T19:15:10.706Z,2.00
2018-11-13T19:17:38.254Z,1.67
2018-11-13T19:20:08.131Z,2.57
2018-11-13T19:22:35.190Z,2.20
2018-11-13T19:25:02.334Z,2.90
2018-11-13T19:27:29.475Z,2.07
2018-11-13T19:29:56.638Z,1.70
2018-11-13T19:32:23.719Z,1.73
2018-11-13T19:34:50.892Z,1.57
2018-11-13T19:37:18.145Z,2.23
2018-11-13T19:39:45.163Z,1.90
2018-11-13T19:42:12.461Z,1.63
2018-11-13T19:44:39.630Z,1.93
2018-11-13T19:47:06.711Z,2.30
2018-11-13T19:49:34.195Z,2.37
2018-11-13T19:52:00.984Z,2.53
2018-11-13T19:54:28.130Z,1.90
2018-11-13T19:56:55.263Z,1.93
2018-11-13T19:59:22.410Z,1.67
2018-11-13T20:01:49.792Z,1.80
2018-11-13T20:04:17.057Z,2.10
2018-11-13T20:06:44.110Z,2.10
2018-11-13T20:09:11.250Z,1.50
2018-11-13T20:11:38.432Z,2.27
2018-11-13T20:14:05.588Z,3.03
2018-11-13T20:16:32.713Z,3.03
2018-11-13T20:18:59.845Z,3.03
2018-11-13T20:21:27.037Z,3.40
2018-11-13T20:23:54.140Z,3.10
2018-11-13T20:26:21.283Z,2.90
2018-11-13T20:28:48.435Z,3.57
2018-11-13T20:31:15.863Z,2.80
2018-11-13T20:33:42.969Z,2.83
2018-11-13T20:36:10.176Z,3.37
2018-11-13T20:38:37.331Z,2.50
2018-11-13T20:41:04.574Z,2.77
2018-11-13T20:43:31.836Z,2.03
2018-11-13T20:45:58.962Z,1.70
2018-11-13T20:48:26.146Z,2.20
2018-11-13T20:50:53.322Z,1.80
2018-11-13T20:53:20.545Z,2.00
2018-11-13T20:55:47.694Z,2.07
2018-11-13T20:58:14.862Z,1.77
2018-11-13T21:00:42.032Z,3.67
2018-11-13T21:03:09.340Z,2.90
2018-11-13T21:05:36.482Z,3.10
2018-11-13T21:08:03.690Z,2.57
2018-11-13T21:10:33.506Z,2.70
2018-11-13T21:13:01.091Z,2.77
2018-11-13T21:15:28.366Z,2.77
2018-11-13T21:17:55.533Z,3.23
2018-11-13T21:20:22.704Z,2.90
2018-11-13T21:22:49.836Z,3.03
2018-11-13T21:25:18.635Z,2.97
2018-11-13T21:27:45.727Z,2.80
2018-11-13T21:30:15.243Z,2.90
2018-11-13T21:32:43.402Z,3.27
2018-11-13T21:35:11.226Z,2.93
2018-11-13T21:37:38.905Z,2.53
2018-11-13T21:40:06.378Z,2.80
2018-11-13T21:42:33.516Z,3.20
2018-11-13T21:45:00.646Z,3.07
2018-11-13T21:47:27.795Z,3.13
2018-11-13T21:49:55.026Z,2.93
2018-11-13T21:52:22.109Z,2.40
2018-11-13T21:54:49.239Z,2.70
2018-11-13T21:57:16.365Z,2.23
2018-11-13T21:59:43.502Z,2.37
2018-11-13T22:02:10.643Z,2.40
2018-11-13T22:04:37.847Z,2.87
2018-11-13T22:07:04.958Z,2.20
2018-11-13T22:09:32.099Z,2.43
2018-11-13T22:11:59.222Z,2.87
2018-11-13T22:14:26.361Z,2.50
2018-11-13T22:16:53.738Z,2.70
2018-11-13T22:19:20.870Z,2.53
2018-11-13T22:21:48.031Z,2.30
2018-11-13T22:24:15.177Z,2.70
2018-11-13T22:26:42.463Z,2.50
2018-11-13T22:29:09.725Z,2.30
2018-11-13T22:31:36.941Z,2.07
2018-11-13T22:34:04.512Z,2.40
2018-11-13T22:36:31.804Z,2.53
2018-11-13T22:38:58.880Z,2.57
2018-11-13T22:41:26.327Z,3.10
2018-11-13T22:43:53.159Z,3.50
2018-11-13T22:46:20.284Z,2.70
2018-11-13T22:48:47.422Z,2.80
2018-11-13T22:51:14.575Z,3.77
2018-11-13T22:53:41.733Z,2.53
2018-11-13T22:56:08.893Z,2.90
2018-11-13T22:58:36.040Z,3.27
2018-11-13T23:01:03.456Z,2.93
2018-11-13T23:03:30.422Z,2.40
2018-11-13T23:05:57.562Z,2.03
2018-11-13T23:08:24.723Z,2.10
2018-11-13T23:10:51.863Z,1.90
2018-11-13T23:13:18.986Z,2.57
2018-11-13T23:15:46.182Z,2.33
2018-11-13T23:18:13.387Z,2.20
2018-11-13T23:20:40.523Z,4.00
2018-11-13T23:23:07.709Z,2.07
2018-11-13T23:25:34.853Z,2.53
2018-11-13T23:28:02.041Z,2.57
2018-11-13T23:30:29.226Z,2.50
2018-11-13T23:32:57.335Z,2.67
2018-11-13T23:35:24.438Z,2.23
2018-11-13T23:37:52.987Z,2.27
2018-11-13T23:40:21.314Z,2.10
2018-11-13T23:42:48.770Z,2.67
2018-11-13T23:45:16.988Z,2.23
2018-11-13T23:47:44.398Z,2.27
2018-11-13T23:50:11.754Z,2.77
2018-11-13T23:52:39.117Z,2.53
2018-11-13T23:55:07.601Z,2.40
2018-11-13T23:57:34.730Z,2.37
